sensor_id;sensor_type;location;lat;lon;timestamp;P1;durP1;ratioP1;P2;durP2;ratioP2
51828;SDS011;37881;48.024;8.774;2024-01-15T00:00:10;39.15;;;16.10;;
51828;SDS011;37881;48.024;8.774;2024-01-15T00:02:38;37.47;;;13.27;;
51828;SDS011;37881;48.024;8.774;2024-01-15T00:05:04;41.13;;;15.07;;
51828;SDS011;37881;48.024;8.774;2024-01-15T00:07:31;40.17;;;15.32;;
51828;SDS011;37881;48.024;8.774;2024-01-15T00:09:58;47.53;;;19.25;;
51828;SDS011;37881;48.024;8.774;2024-01-15T00:12:24;48.47;;;19.73;;
51828;SDS011;37881;48.024;8.774;2024-01-15T00:14:51;41.78;;;17.02;;
51828;SDS011;37881;48.024;8.774;2024-01-15T00:17:18;43.40;;;15.57;;
51828;SDS011;37881;48.024;8.774;2024-01-15T00:19:45;41.55;;;15.07;;
51828;SDS011;37881;48.024;8.774;2024-01-15T00:22:12;44.30;;;15.40;;
51828;SDS011;37881;48.024;8.774;2024-01-15T00:24:39;43.70;;;17.05;;
51828;SDS011;37881;48.024;8.774;2024-01-15T00:27:05;38.80;;;13.95;;
51828;SDS011;37881;48.024;8.774;2024-01-15T00:29:32;41.03;;;14.85;;
51828;SDS011;37881;48.024;8.774;2024-01-15T00:31:59;43.80;;;14.38;;
51828;SDS011;37881;48.024;8.774;2024-01-15T00:34:26;42.75;;;13.98;;
51828;SDS011;37881;48.024;8.774;2024-01-15T00:36:53;39.95;;;14.10;;
51828;SDS011;37881;48.024;8.774;2024-01-15T00:39:20;39.75;;;14.70;;
51828;SDS011;37881;48.024;8.774;2024-01-15T00:41:47;42.25;;;13.93;;
51828;SDS011;37881;48.024;8.774;2024-01-15T00:44:13;38.30;;;14.00;;
51828;SDS011;37881;48.024;8.774;2024-01-15T00:46:44;38.65;;;13.98;;
51828;SDS011;37881;48.024;8.774;2024-01-15T00:49:12;35.90;;;13.55;;
51828;SDS011;37881;48.024;8.774;2024-01-15T00:51:40;33.40;;;13.48;;
51828;SDS011;37881;48.024;8.774;2024-01-15T00:54:07;37.67;;;12.93;;
51828;SDS011;37881;48.024;8.774;2024-01-15T00:56:35;35.38;;;11.43;;
51828;SDS011;37881;48.024;8.774;2024-01-15T00:59:02;36.83;;;10.65;;
51828;SDS011;37881;48.024;8.774;2024-01-15T01:01:28;30.08;;;10.63;;
51828;SDS011;37881;48.024;8.774;2024-01-15T01:03:56;27.55;;;9.05;;
51828;SDS011;37881;48.024;8.774;2024-01-15T01:06:23;29.00;;;10.38;;
51828;SDS011;37881;48.024;8.774;2024-01-15T01:08:50;28.17;;;10.30;;
51828;SDS011;37881;48.024;8.774;2024-01-15T01:11:17;28.63;;;9.93;;
51828;SDS011;37881;48.024;8.774;2024-01-15T01:13:43;26.30;;;9.35;;
51828;SDS011;37881;48.024;8.774;2024-01-15T01:16:10;26.08;;;8.40;;
51828;SDS011;37881;48.024;8.774;2024-01-15T01:18:37;24.92;;;9.50;;
51828;SDS011;37881;48.024;8.774;2024-01-15T01:21:04;23.42;;;9.13;;
51828;SDS011;37881;48.024;8.774;2024-01-15T01:23:31;26.73;;;9.60;;
51828;SDS011;37881;48.024;8.774;2024-01-15T01:25:57;37.38;;;14.70;;
51828;SDS011;37881;48.024;8.774;2024-01-15T01:28:24;31.17;;;11.25;;
51828;SDS011;37881;48.024;8.774;2024-01-15T01:30:51;34.70;;;12.68;;
51828;SDS011;37881;48.024;8.774;2024-01-15T01:33:18;27.50;;;10.27;;
51828;SDS011;37881;48.024;8.774;2024-01-15T01:35:45;23.67;;;9.13;;
51828;SDS011;37881;48.024;8.774;2024-01-15T01:38:13;21.65;;;8.32;;
51828;SDS011;37881;48.024;8.774;2024-01-15T01:40:39;23.98;;;8.73;;
51828;SDS011;37881;48.024;8.774;2024-01-15T01:43:06;24.17;;;8.75;;
51828;SDS011;37881;48.024;8.774;2024-01-15T01:45:35;25.95;;;8.23;;
51828;SDS011;37881;48.024;8.774;2024-01-15T01:48:02;28.67;;;9.45;;
51828;SDS011;37881;48.024;8.774;2024-01-15T01:50:30;25.67;;;9.30;;
51828;SDS011;37881;48.024;8.774;2024-01-15T01:52:58;22.02;;;7.82;;
51828;SDS011;37881;48.024;8.774;2024-01-15T01:55:26;27.15;;;8.88;;
51828;SDS011;37881;48.024;8.774;2024-01-15T01:57:55;25.65;;;9.48;;
51828;SDS011;37881;48.024;8.774;2024-01-15T02:00:22;20.63;;;7.35;;
51828;SDS011;37881;48.024;8.774;2024-01-15T02:02:49;23.35;;;7.68;;
51828;SDS011;37881;48.024;8.774;2024-01-15T02:05:18;24.88;;;7.82;;
51828;SDS011;37881;48.024;8.774;2024-01-15T02:07:46;20.52;;;8.10;;
51828;SDS011;37881;48.024;8.774;2024-01-15T02:10:14;23.30;;;8.15;;
51828;SDS011;37881;48.024;8.774;2024-01-15T02:12:42;22.85;;;7.20;;
51828;SDS011;37881;48.024;8.774;2024-01-15T02:15:09;19.52;;;7.55;;
51828;SDS011;37881;48.024;8.774;2024-01-15T02:17:55;17.73;;;6.40;;
51828;SDS011;37881;48.024;8.774;2024-01-15T02:20:24;20.98;;;8.02;;
51828;SDS011;37881;48.024;8.774;2024-01-15T02:22:51;21.45;;;7.25;;
51828;SDS011;37881;48.024;8.774;2024-01-15T02:25:18;24.75;;;8.73;;
51828;SDS011;37881;48.024;8.774;2024-01-15T02:27:45;29.35;;;9.40;;
51828;SDS011;37881;48.024;8.774;2024-01-15T02:30:12;22.45;;;8.00;;
51828;SDS011;37881;48.024;8.774;2024-01-15T02:32:39;17.27;;;6.72;;
51828;SDS011;37881;48.024;8.774;2024-01-15T02:35:06;18.83;;;7.28;;
51828;SDS011;37881;48.024;8.774;2024-01-15T02:37:33;21.77;;;7.75;;
51828;SDS011;37881;48.024;8.774;2024-01-15T02:40:00;19.02;;;6.95;;
51828;SDS011;37881;48.024;8.774;2024-01-15T02:42:27;18.95;;;6.63;;
51828;SDS011;37881;48.024;8.774;2024-01-15T02:44:53;17.10;;;6.13;;
51828;SDS011;37881;48.024;8.774;2024-01-15T02:47:20;19.10;;;7.07;;
51828;SDS011;37881;48.024;8.774;2024-01-15T02:49:47;18.27;;;6.70;;
51828;SDS011;37881;48.024;8.774;2024-01-15T02:52:14;15.77;;;6.28;;
51828;SDS011;37881;48.024;8.774;2024-01-15T02:54:40;19.90;;;6.40;;
51828;SDS011;37881;48.024;8.774;2024-01-15T02:57:07;16.83;;;6.28;;
51828;SDS011;37881;48.024;8.774;2024-01-15T02:59:34;18.20;;;6.80;;
51828;SDS011;37881;48.024;8.774;2024-01-15T03:02:00;17.40;;;5.82;;
51828;SDS011;37881;48.024;8.774;2024-01-15T03:04:27;16.90;;;6.53;;
51828;SDS011;37881;48.024;8.774;2024-01-15T03:06:54;17.95;;;6.25;;
51828;SDS011;37881;48.024;8.774;2024-01-15T03:09:21;17.00;;;6.10;;
51828;SDS011;37881;48.024;8.774;2024-01-15T03:11:48;17.38;;;6.05;;
51828;SDS011;37881;48.024;8.774;2024-01-15T03:14:15;16.30;;;5.88;;
51828;SDS011;37881;48.024;8.774;2024-01-15T03:16:42;15.98;;;5.97;;
51828;SDS011;37881;48.024;8.774;2024-01-15T03:19:08;21.70;;;7.45;;
51828;SDS011;37881;48.024;8.774;2024-01-15T03:21:35;15.77;;;5.82;;
51828;SDS011;37881;48.024;8.774;2024-01-15T03:24:02;16.40;;;6.35;;
51828;SDS011;37881;48.024;8.774;2024-01-15T03:26:29;17.15;;;5.78;;
51828;SDS011;37881;48.024;8.774;2024-01-15T03:28:55;15.63;;;5.93;;
51828;SDS011;37881;48.024;8.774;2024-01-15T03:31:22;14.60;;;5.82;;
51828;SDS011;37881;48.024;8.774;2024-01-15T03:33:49;15.68;;;5.90;;
51828;SDS011;37881;48.024;8.774;2024-01-15T03:36:16;16.63;;;6.38;;
51828;SDS011;37881;48.024;8.774;2024-01-15T03:38:43;13.80;;;5.13;;
51828;SDS011;37881;48.024;8.774;2024-01-15T03:41:09;13.95;;;5.35;;
51828;SDS011;37881;48.024;8.774;2024-01-15T03:43:36;14.90;;;5.55;;
51828;SDS011;37881;48.024;8.774;2024-01-15T03:46:03;15.48;;;5.70;;
51828;SDS011;37881;48.024;8.774;2024-01-15T03:48:30;16.25;;;6.47;;
51828;SDS011;37881;48.024;8.774;2024-01-15T03:50:57;16.77;;;6.43;;
51828;SDS011;37881;48.024;8.774;2024-01-15T03:53:24;14.60;;;5.60;;
51828;SDS011;37881;48.024;8.774;2024-01-15T03:55:51;14.52;;;5.57;;
51828;SDS011;37881;48.024;8.774;2024-01-15T03:58:18;19.30;;;6.88;;
51828;SDS011;37881;48.024;8.774;2024-01-15T04:00:45;14.80;;;6.15;;
51828;SDS011;37881;48.024;8.774;2024-01-15T04:03:12;13.57;;;6.38;;
51828;SDS011;37881;48.024;8.774;2024-01-15T04:05:39;15.50;;;6.63;;
51828;SDS011;37881;48.024;8.774;2024-01-15T04:08:05;15.68;;;5.75;;
51828;SDS011;37881;48.024;8.774;2024-01-15T04:10:32;14.38;;;5.25;;
51828;SDS011;37881;48.024;8.774;2024-01-15T04:12:59;13.80;;;5.60;;
51828;SDS011;37881;48.024;8.774;2024-01-15T04:15:28;15.45;;;6.07;;
51828;SDS011;37881;48.024;8.774;2024-01-15T04:17:54;15.95;;;5.90;;
51828;SDS011;37881;48.024;8.774;2024-01-15T04:20:21;16.20;;;5.88;;
51828;SDS011;37881;48.024;8.774;2024-01-15T04:22:51;13.88;;;5.07;;
51828;SDS011;37881;48.024;8.774;2024-01-15T04:25:18;16.52;;;6.07;;
51828;SDS011;37881;48.024;8.774;2024-01-15T04:27:45;13.32;;;4.88;;
51828;SDS011;37881;48.024;8.774;2024-01-15T04:30:12;14.25;;;5.50;;
51828;SDS011;37881;48.024;8.774;2024-01-15T04:32:39;24.17;;;9.10;;
51828;SDS011;37881;48.024;8.774;2024-01-15T04:35:06;15.38;;;6.00;;
51828;SDS011;37881;48.024;8.774;2024-01-15T04:37:33;14.05;;;5.50;;
51828;SDS011;37881;48.024;8.774;2024-01-15T04:40:00;15.23;;;5.47;;
51828;SDS011;37881;48.024;8.774;2024-01-15T04:42:30;13.23;;;5.20;;
51828;SDS011;37881;48.024;8.774;2024-01-15T04:44:57;17.58;;;6.60;;
51828;SDS011;37881;48.024;8.774;2024-01-15T04:47:24;20.38;;;8.48;;
51828;SDS011;37881;48.024;8.774;2024-01-15T04:49:51;20.08;;;9.20;;
51828;SDS011;37881;48.024;8.774;2024-01-15T04:52:18;14.90;;;6.20;;
51828;SDS011;37881;48.024;8.774;2024-01-15T04:54:45;16.17;;;6.70;;
51828;SDS011;37881;48.024;8.774;2024-01-15T04:57:12;22.48;;;8.75;;
51828;SDS011;37881;48.024;8.774;2024-01-15T04:59:38;20.42;;;7.32;;
51828;SDS011;37881;48.024;8.774;2024-01-15T05:02:06;18.55;;;7.40;;
51828;SDS011;37881;48.024;8.774;2024-01-15T05:04:32;15.48;;;6.18;;
51828;SDS011;37881;48.024;8.774;2024-01-15T05:06:59;12.43;;;5.60;;
51828;SDS011;37881;48.024;8.774;2024-01-15T05:09:26;10.93;;;5.32;;
51828;SDS011;37881;48.024;8.774;2024-01-15T05:11:57;11.88;;;4.82;;
51828;SDS011;37881;48.024;8.774;2024-01-15T05:14:23;10.65;;;4.43;;
51828;SDS011;37881;48.024;8.774;2024-01-15T05:16:50;7.93;;;4.07;;
51828;SDS011;37881;48.024;8.774;2024-01-15T05:19:18;11.90;;;4.45;;
51828;SDS011;37881;48.024;8.774;2024-01-15T05:21:45;9.00;;;4.00;;
51828;SDS011;37881;48.024;8.774;2024-01-15T05:24:12;9.20;;;4.30;;
51828;SDS011;37881;48.024;8.774;2024-01-15T05:26:38;10.70;;;4.03;;
51828;SDS011;37881;48.024;8.774;2024-01-15T05:29:05;8.55;;;3.92;;
51828;SDS011;37881;48.024;8.774;2024-01-15T05:31:32;8.07;;;3.30;;
51828;SDS011;37881;48.024;8.774;2024-01-15T05:33:59;8.60;;;3.20;;
51828;SDS011;37881;48.024;8.774;2024-01-15T05:36:26;8.60;;;3.40;;
51828;SDS011;37881;48.024;8.774;2024-01-15T05:38:53;7.63;;;3.42;;
51828;SDS011;37881;48.024;8.774;2024-01-15T05:41:19;8.75;;;3.50;;
51828;SDS011;37881;48.024;8.774;2024-01-15T05:43:46;7.47;;;3.33;;
51828;SDS011;37881;48.024;8.774;2024-01-15T05:46:13;6.47;;;3.05;;
51828;SDS011;37881;48.024;8.774;2024-01-15T05:48:41;8.35;;;3.72;;
51828;SDS011;37881;48.024;8.774;2024-01-15T05:51:09;9.10;;;3.55;;
51828;SDS011;37881;48.024;8.774;2024-01-15T05:53:36;10.30;;;4.10;;
51828;SDS011;37881;48.024;8.774;2024-01-15T05:56:06;9.52;;;4.22;;
51828;SDS011;37881;48.024;8.774;2024-01-15T05:58:33;8.52;;;4.07;;
51828;SDS011;37881;48.024;8.774;2024-01-15T06:01:00;9.65;;;3.95;;
51828;SDS011;37881;48.024;8.774;2024-01-15T06:03:27;9.55;;;4.10;;
51828;SDS011;37881;48.024;8.774;2024-01-15T06:05:53;10.90;;;4.40;;
51828;SDS011;37881;48.024;8.774;2024-01-15T06:08:20;11.23;;;5.57;;
51828;SDS011;37881;48.024;8.774;2024-01-15T06:10:47;12.07;;;5.55;;
51828;SDS011;37881;48.024;8.774;2024-01-15T06:13:14;9.85;;;4.50;;
51828;SDS011;37881;48.024;8.774;2024-01-15T06:15:40;8.85;;;4.13;;
51828;SDS011;37881;48.024;8.774;2024-01-15T06:18:07;13.75;;;5.22;;
51828;SDS011;37881;48.024;8.774;2024-01-15T06:20:34;10.27;;;4.10;;
51828;SDS011;37881;48.024;8.774;2024-01-15T06:23:01;8.57;;;4.37;;
51828;SDS011;37881;48.024;8.774;2024-01-15T06:25:28;9.73;;;3.97;;
51828;SDS011;37881;48.024;8.774;2024-01-15T06:27:54;9.98;;;4.47;;
51828;SDS011;37881;48.024;8.774;2024-01-15T06:30:21;10.05;;;3.95;;
51828;SDS011;37881;48.024;8.774;2024-01-15T06:32:48;11.75;;;5.00;;
51828;SDS011;37881;48.024;8.774;2024-01-15T06:35:16;9.75;;;4.57;;
51828;SDS011;37881;48.024;8.774;2024-01-15T06:37:47;13.40;;;5.88;;
51828;SDS011;37881;48.024;8.774;2024-01-15T06:40:14;9.98;;;4.47;;
51828;SDS011;37881;48.024;8.774;2024-01-15T06:42:41;14.15;;;5.85;;
51828;SDS011;37881;48.024;8.774;2024-01-15T06:45:08;10.52;;;4.65;;
51828;SDS011;37881;48.024;8.774;2024-01-15T06:47:35;9.20;;;4.65;;
51828;SDS011;37881;48.024;8.774;2024-01-15T06:50:02;9.27;;;3.92;;
51828;SDS011;37881;48.024;8.774;2024-01-15T06:52:28;11.02;;;4.80;;
51828;SDS011;37881;48.024;8.774;2024-01-15T06:54:55;8.95;;;3.75;;
51828;SDS011;37881;48.024;8.774;2024-01-15T06:57:22;10.88;;;4.82;;
51828;SDS011;37881;48.024;8.774;2024-01-15T06:59:49;11.40;;;4.63;;
51828;SDS011;37881;48.024;8.774;2024-01-15T07:02:16;8.98;;;3.70;;
51828;SDS011;37881;48.024;8.774;2024-01-15T07:04:42;11.98;;;4.68;;
51828;SDS011;37881;48.024;8.774;2024-01-15T07:07:09;10.77;;;4.70;;
51828;SDS011;37881;48.024;8.774;2024-01-15T07:09:36;11.40;;;4.63;;
51828;SDS011;37881;48.024;8.774;2024-01-15T07:12:03;11.18;;;4.28;;
51828;SDS011;37881;48.024;8.774;2024-01-15T07:14:29;9.73;;;3.85;;
51828;SDS011;37881;48.024;8.774;2024-01-15T07:16:56;11.85;;;4.72;;
51828;SDS011;37881;48.024;8.774;2024-01-15T07:19:23;11.40;;;4.13;;
51828;SDS011;37881;48.024;8.774;2024-01-15T07:21:50;8.18;;;4.00;;
51828;SDS011;37881;48.024;8.774;2024-01-15T07:24:20;9.02;;;4.78;;
51828;SDS011;37881;48.024;8.774;2024-01-15T07:26:47;9.50;;;4.20;;
51828;SDS011;37881;48.024;8.774;2024-01-15T07:29:14;9.05;;;3.97;;
51828;SDS011;37881;48.024;8.774;2024-01-15T07:31:43;12.27;;;6.13;;
51828;SDS011;37881;48.024;8.774;2024-01-15T07:34:14;9.23;;;4.32;;
51828;SDS011;37881;48.024;8.774;2024-01-15T07:36:41;8.95;;;3.95;;
51828;SDS011;37881;48.024;8.774;2024-01-15T07:39:08;15.20;;;7.35;;
51828;SDS011;37881;48.024;8.774;2024-01-15T07:41:34;8.88;;;4.30;;
51828;SDS011;37881;48.024;8.774;2024-01-15T07:44:01;17.42;;;6.55;;
51828;SDS011;37881;48.024;8.774;2024-01-15T07:46:28;8.38;;;4.05;;
51828;SDS011;37881;48.024;8.774;2024-01-15T07:48:55;11.40;;;5.10;;
51828;SDS011;37881;48.024;8.774;2024-01-15T07:51:25;10.23;;;4.80;;
51828;SDS011;37881;48.024;8.774;2024-01-15T07:53:55;9.27;;;4.07;;
51828;SDS011;37881;48.024;8.774;2024-01-15T07:56:22;11.80;;;4.30;;
51828;SDS011;37881;48.024;8.774;2024-01-15T07:58:49;12.98;;;4.50;;
51828;SDS011;37881;48.024;8.774;2024-01-15T08:01:16;10.70;;;4.15;;
51828;SDS011;37881;48.024;8.774;2024-01-15T08:03:42;9.38;;;3.70;;
51828;SDS011;37881;48.024;8.774;2024-01-15T08:06:09;18.13;;;8.57;;
51828;SDS011;37881;48.024;8.774;2024-01-15T08:08:37;13.00;;;6.20;;
51828;SDS011;37881;48.024;8.774;2024-01-15T08:11:04;14.60;;;6.25;;
51828;SDS011;37881;48.024;8.774;2024-01-15T08:13:31;11.65;;;4.90;;
51828;SDS011;37881;48.024;8.774;2024-01-15T08:15:58;12.52;;;6.03;;
51828;SDS011;37881;48.024;8.774;2024-01-15T08:18:25;12.35;;;5.57;;
51828;SDS011;37881;48.024;8.774;2024-01-15T08:20:52;11.10;;;4.28;;
51828;SDS011;37881;48.024;8.774;2024-01-15T08:23:19;8.52;;;4.50;;
51828;SDS011;37881;48.024;8.774;2024-01-15T08:25:46;24.55;;;6.85;;
51828;SDS011;37881;48.024;8.774;2024-01-15T08:28:13;11.57;;;4.15;;
51828;SDS011;37881;48.024;8.774;2024-01-15T08:30:40;10.55;;;4.88;;
51828;SDS011;37881;48.024;8.774;2024-01-15T08:33:07;11.30;;;4.90;;
51828;SDS011;37881;48.024;8.774;2024-01-15T08:35:46;19.10;;;5.97;;
51828;SDS011;37881;48.024;8.774;2024-01-15T08:38:13;17.05;;;6.95;;
51828;SDS011;37881;48.024;8.774;2024-01-15T08:40:39;7.47;;;4.13;;
51828;SDS011;37881;48.024;8.774;2024-01-15T08:43:06;8.07;;;4.35;;
51828;SDS011;37881;48.024;8.774;2024-01-15T08:45:33;8.88;;;3.78;;
51828;SDS011;37881;48.024;8.774;2024-01-15T08:48:00;7.43;;;3.55;;
51828;SDS011;37881;48.024;8.774;2024-01-15T08:50:27;8.00;;;3.53;;
51828;SDS011;37881;48.024;8.774;2024-01-15T08:52:56;6.50;;;3.30;;
51828;SDS011;37881;48.024;8.774;2024-01-15T08:55:22;6.65;;;3.45;;
51828;SDS011;37881;48.024;8.774;2024-01-15T08:57:49;6.90;;;3.35;;
51828;SDS011;37881;48.024;8.774;2024-01-15T09:00:17;8.68;;;3.92;;
51828;SDS011;37881;48.024;8.774;2024-01-15T09:02:44;7.85;;;3.70;;
51828;SDS011;37881;48.024;8.774;2024-01-15T09:05:11;8.20;;;3.92;;
51828;SDS011;37881;48.024;8.774;2024-01-15T09:07:38;8.60;;;3.72;;
51828;SDS011;37881;48.024;8.774;2024-01-15T09:10:04;7.38;;;3.30;;
51828;SDS011;37881;48.024;8.774;2024-01-15T09:12:32;8.55;;;4.38;;
51828;SDS011;37881;48.024;8.774;2024-01-15T09:14:58;8.97;;;4.30;;
51828;SDS011;37881;48.024;8.774;2024-01-15T09:17:25;8.80;;;4.22;;
51828;SDS011;37881;48.024;8.774;2024-01-15T09:19:54;8.43;;;4.15;;
51828;SDS011;37881;48.024;8.774;2024-01-15T09:22:21;8.82;;;3.60;;
51828;SDS011;37881;48.024;8.774;2024-01-15T09:24:48;8.23;;;3.28;;
51828;SDS011;37881;48.024;8.774;2024-01-15T09:27:15;5.67;;;2.80;;
51828;SDS011;37881;48.024;8.774;2024-01-15T09:29:42;6.32;;;2.88;;
51828;SDS011;37881;48.024;8.774;2024-01-15T09:32:09;5.10;;;2.50;;
51828;SDS011;37881;48.024;8.774;2024-01-15T09:34:36;5.65;;;2.75;;
51828;SDS011;37881;48.024;8.774;2024-01-15T09:37:03;5.25;;;2.00;;
51828;SDS011;37881;48.024;8.774;2024-01-15T09:39:30;4.30;;;2.00;;
51828;SDS011;37881;48.024;8.774;2024-01-15T09:41:58;4.35;;;2.30;;
51828;SDS011;37881;48.024;8.774;2024-01-15T09:44:25;4.70;;;1.70;;
51828;SDS011;37881;48.024;8.774;2024-01-15T09:46:53;3.97;;;1.60;;
51828;SDS011;37881;48.024;8.774;2024-01-15T09:49:21;4.45;;;2.20;;
51828;SDS011;37881;48.024;8.774;2024-01-15T09:51:49;4.90;;;1.97;;
51828;SDS011;37881;48.024;8.774;2024-01-15T09:54:31;5.50;;;1.88;;
51828;SDS011;37881;48.024;8.774;2024-01-15T09:56:59;4.10;;;1.70;;
51828;SDS011;37881;48.024;8.774;2024-01-15T09:59:27;5.38;;;2.40;;
51828;SDS011;37881;48.024;8.774;2024-01-15T10:01:54;5.32;;;1.90;;
51828;SDS011;37881;48.024;8.774;2024-01-15T10:04:23;4.03;;;2.03;;
51828;SDS011;37881;48.024;8.774;2024-01-15T10:06:51;5.82;;;2.20;;
51828;SDS011;37881;48.024;8.774;2024-01-15T10:09:18;5.78;;;2.03;;
51828;SDS011;37881;48.024;8.774;2024-01-15T10:11:45;14.27;;;3.55;;
51828;SDS011;37881;48.024;8.774;2024-01-15T10:14:12;8.02;;;2.90;;
51828;SDS011;37881;48.024;8.774;2024-01-15T10:16:39;5.82;;;1.98;;
51828;SDS011;37881;48.024;8.774;2024-01-15T10:19:07;5.13;;;2.15;;
51828;SDS011;37881;48.024;8.774;2024-01-15T10:21:35;3.80;;;2.13;;
51828;SDS011;37881;48.024;8.774;2024-01-15T10:24:03;4.18;;;2.08;;
51828;SDS011;37881;48.024;8.774;2024-01-15T10:26:31;4.15;;;2.05;;
51828;SDS011;37881;48.024;8.774;2024-01-15T10:28:58;6.03;;;2.00;;
51828;SDS011;37881;48.024;8.774;2024-01-15T10:31:25;6.55;;;2.10;;
51828;SDS011;37881;48.024;8.774;2024-01-15T10:34:09;9.15;;;2.80;;
51828;SDS011;37881;48.024;8.774;2024-01-15T10:36:42;4.78;;;1.98;;
51828;SDS011;37881;48.024;8.774;2024-01-15T10:39:14;4.03;;;2.20;;
51828;SDS011;37881;48.024;8.774;2024-01-15T10:41:41;6.00;;;2.17;;
51828;SDS011;37881;48.024;8.774;2024-01-15T10:44:08;5.07;;;2.45;;
51828;SDS011;37881;48.024;8.774;2024-01-15T10:46:34;5.32;;;2.28;;
51828;SDS011;37881;48.024;8.774;2024-01-15T10:49:02;3.88;;;2.00;;
51828;SDS011;37881;48.024;8.774;2024-01-15T10:51:29;3.60;;;2.03;;
51828;SDS011;37881;48.024;8.774;2024-01-15T10:53:56;3.80;;;2.00;;
51828;SDS011;37881;48.024;8.774;2024-01-15T10:56:23;15.73;;;2.67;;
51828;SDS011;37881;48.024;8.774;2024-01-15T10:58:51;13.43;;;2.20;;
51828;SDS011;37881;48.024;8.774;2024-01-15T11:01:24;4.22;;;1.70;;
51828;SDS011;37881;48.024;8.774;2024-01-15T11:03:55;9.50;;;2.85;;
51828;SDS011;37881;48.024;8.774;2024-01-15T11:06:24;4.80;;;2.20;;
51828;SDS011;37881;48.024;8.774;2024-01-15T11:08:54;9.93;;;3.45;;
51828;SDS011;37881;48.024;8.774;2024-01-15T11:11:21;27.65;;;3.28;;
51828;SDS011;37881;48.024;8.774;2024-01-15T11:13:49;10.65;;;2.25;;
51828;SDS011;37881;48.024;8.774;2024-01-15T11:16:18;6.05;;;2.33;;
51828;SDS011;37881;48.024;8.774;2024-01-15T11:21:25;18.92;;;2.45;;
51828;SDS011;37881;48.024;8.774;2024-01-15T11:23:57;9.57;;;3.83;;
51828;SDS011;37881;48.024;8.774;2024-01-15T11:26:38;12.60;;;2.40;;
51828;SDS011;37881;48.024;8.774;2024-01-15T11:31:57;5.07;;;2.60;;
51828;SDS011;37881;48.024;8.774;2024-01-15T11:37:25;4.78;;;2.40;;
51828;SDS011;37881;48.024;8.774;2024-01-15T11:39:54;9.55;;;2.80;;
51828;SDS011;37881;48.024;8.774;2024-01-15T11:42:22;9.93;;;3.05;;
51828;SDS011;37881;48.024;8.774;2024-01-15T11:44:50;10.77;;;2.60;;
51828;SDS011;37881;48.024;8.774;2024-01-15T11:47:17;8.40;;;2.10;;
51828;SDS011;37881;48.024;8.774;2024-01-15T11:50:02;3.70;;;1.92;;
51828;SDS011;37881;48.024;8.774;2024-01-15T11:52:34;4.72;;;2.28;;
51828;SDS011;37881;48.024;8.774;2024-01-15T11:57:41;4.17;;;1.97;;
51828;SDS011;37881;48.024;8.774;2024-01-15T12:00:12;5.72;;;2.67;;
51828;SDS011;37881;48.024;8.774;2024-01-15T12:02:41;6.07;;;2.42;;
51828;SDS011;37881;48.024;8.774;2024-01-15T12:05:13;5.57;;;2.40;;
51828;SDS011;37881;48.024;8.774;2024-01-15T12:07:44;7.00;;;2.60;;
51828;SDS011;37881;48.024;8.774;2024-01-15T12:10:13;6.80;;;2.87;;
51828;SDS011;37881;48.024;8.774;2024-01-15T12:13:04;6.43;;;2.72;;
51828;SDS011;37881;48.024;8.774;2024-01-15T12:15:36;6.28;;;2.90;;
51828;SDS011;37881;48.024;8.774;2024-01-15T12:18:03;6.97;;;3.13;;
51828;SDS011;37881;48.024;8.774;2024-01-15T12:20:30;11.45;;;3.45;;
51828;SDS011;37881;48.024;8.774;2024-01-15T12:22:58;8.30;;;3.60;;
51828;SDS011;37881;48.024;8.774;2024-01-15T12:25:29;6.90;;;3.28;;
51828;SDS011;37881;48.024;8.774;2024-01-15T12:27:57;5.75;;;2.97;;
51828;SDS011;37881;48.024;8.774;2024-01-15T12:30:29;7.05;;;3.00;;
51828;SDS011;37881;48.024;8.774;2024-01-15T12:33:00;89.22;;;38.58;;
51828;SDS011;37881;48.024;8.774;2024-01-15T12:35:29;7.47;;;3.70;;
51828;SDS011;37881;48.024;8.774;2024-01-15T12:37:56;6.25;;;2.60;;
51828;SDS011;37881;48.024;8.774;2024-01-15T12:40:23;5.90;;;2.90;;
51828;SDS011;37881;48.024;8.774;2024-01-15T12:42:50;14.93;;;3.88;;
51828;SDS011;37881;48.024;8.774;2024-01-15T12:45:17;10.73;;;4.50;;
51828;SDS011;37881;48.024;8.774;2024-01-15T12:47:44;8.83;;;3.10;;
51828;SDS011;37881;48.024;8.774;2024-01-15T12:50:13;11.93;;;3.33;;
51828;SDS011;37881;48.024;8.774;2024-01-15T12:52:46;10.48;;;4.00;;
51828;SDS011;37881;48.024;8.774;2024-01-15T12:55:13;6.57;;;2.83;;
51828;SDS011;37881;48.024;8.774;2024-01-15T12:57:41;13.30;;;3.72;;
51828;SDS011;37881;48.024;8.774;2024-01-15T13:00:08;9.27;;;4.30;;
51828;SDS011;37881;48.024;8.774;2024-01-15T13:02:40;7.97;;;2.83;;
51828;SDS011;37881;48.024;8.774;2024-01-15T13:05:08;6.88;;;2.95;;
51828;SDS011;37881;48.024;8.774;2024-01-15T13:07:38;8.00;;;3.63;;
51828;SDS011;37881;48.024;8.774;2024-01-15T13:10:05;9.57;;;4.43;;
51828;SDS011;37881;48.024;8.774;2024-01-15T13:12:33;6.67;;;3.10;;
51828;SDS011;37881;48.024;8.774;2024-01-15T13:15:00;8.13;;;3.40;;
51828;SDS011;37881;48.024;8.774;2024-01-15T13:17:30;11.80;;;3.63;;
51828;SDS011;37881;48.024;8.774;2024-01-15T13:19:57;8.55;;;3.10;;
51828;SDS011;37881;48.024;8.774;2024-01-15T13:22:24;7.60;;;3.60;;
51828;SDS011;37881;48.024;8.774;2024-01-15T13:24:56;8.73;;;3.53;;
51828;SDS011;37881;48.024;8.774;2024-01-15T13:27:23;8.90;;;3.15;;
51828;SDS011;37881;48.024;8.774;2024-01-15T13:29:50;8.20;;;3.33;;
51828;SDS011;37881;48.024;8.774;2024-01-15T13:32:17;7.63;;;3.58;;
51828;SDS011;37881;48.024;8.774;2024-01-15T13:34:56;7.53;;;3.10;;
51828;SDS011;37881;48.024;8.774;2024-01-15T13:37:24;6.60;;;2.90;;
51828;SDS011;37881;48.024;8.774;2024-01-15T13:39:51;6.50;;;2.40;;
51828;SDS011;37881;48.024;8.774;2024-01-15T13:42:20;5.75;;;2.75;;
51828;SDS011;37881;48.024;8.774;2024-01-15T13:44:50;5.40;;;2.60;;
51828;SDS011;37881;48.024;8.774;2024-01-15T13:47:17;6.35;;;2.70;;
51828;SDS011;37881;48.024;8.774;2024-01-15T13:49:44;8.87;;;3.70;;
51828;SDS011;37881;48.024;8.774;2024-01-15T13:52:11;7.25;;;3.20;;
51828;SDS011;37881;48.024;8.774;2024-01-15T13:54:39;6.75;;;3.38;;
51828;SDS011;37881;48.024;8.774;2024-01-15T13:57:18;8.65;;;3.45;;
51828;SDS011;37881;48.024;8.774;2024-01-15T13:59:46;7.20;;;3.25;;
51828;SDS011;37881;48.024;8.774;2024-01-15T14:02:13;6.80;;;3.03;;
51828;SDS011;37881;48.024;8.774;2024-01-15T14:04:46;8.38;;;4.00;;
51828;SDS011;37881;48.024;8.774;2024-01-15T14:07:14;7.72;;;3.97;;
51828;SDS011;37881;48.024;8.774;2024-01-15T14:09:42;8.07;;;3.40;;
51828;SDS011;37881;48.024;8.774;2024-01-15T14:12:08;7.75;;;3.78;;
51828;SDS011;37881;48.024;8.774;2024-01-15T14:14:35;6.17;;;3.20;;
51828;SDS011;37881;48.024;8.774;2024-01-15T14:17:02;6.88;;;3.15;;
51828;SDS011;37881;48.024;8.774;2024-01-15T14:19:29;7.30;;;3.55;;
51828;SDS011;37881;48.024;8.774;2024-01-15T14:21:56;6.20;;;2.78;;
51828;SDS011;37881;48.024;8.774;2024-01-15T14:24:22;9.10;;;4.22;;
51828;SDS011;37881;48.024;8.774;2024-01-15T14:26:49;8.77;;;4.40;;
51828;SDS011;37881;48.024;8.774;2024-01-15T14:29:16;7.68;;;2.88;;
51828;SDS011;37881;48.024;8.774;2024-01-15T14:31:45;6.28;;;3.25;;
51828;SDS011;37881;48.024;8.774;2024-01-15T14:34:13;10.68;;;5.20;;
51828;SDS011;37881;48.024;8.774;2024-01-15T14:36:41;7.78;;;4.00;;
51828;SDS011;37881;48.024;8.774;2024-01-15T14:39:08;12.18;;;6.07;;
51828;SDS011;37881;48.024;8.774;2024-01-15T14:41:36;10.00;;;5.35;;
51828;SDS011;37881;48.024;8.774;2024-01-15T14:44:03;7.65;;;3.58;;
51828;SDS011;37881;48.024;8.774;2024-01-15T14:46:29;7.10;;;3.50;;
51828;SDS011;37881;48.024;8.774;2024-01-15T14:48:56;8.40;;;3.53;;
51828;SDS011;37881;48.024;8.774;2024-01-15T14:51:24;9.07;;;4.23;;